createdAt,value
2019-02-21T00:00:24.314Z,32.57
2019-02-21T00:02:51.176Z,32.90
2019-02-21T00:05:19.597Z,31.93
2019-02-21T00:07:48.125Z,30.23
2019-02-21T00:10:16.848Z,30.00
2019-02-21T00:12:45.638Z,29.53
2019-02-21T00:15:14.739Z,30.83
2019-02-21T00:17:43.583Z,32.23
2019-02-21T00:20:12.065Z,32.40
2019-02-21T00:22:40.532Z,32.53
2019-02-21T00:25:09.570Z,34.27
2019-02-21T00:27:38.480Z,33.23
2019-02-21T00:30:07.574Z,31.50
2019-02-21T00:32:36.153Z,31.03
2019-02-21T00:35:04.858Z,32.73
2019-02-21T00:37:33.730Z,34.20
2019-02-21T00:40:02.561Z,32.10
2019-02-21T00:42:31.039Z,33.23
2019-02-21T00:44:59.401Z,31.70
2019-02-21T00:47:27.862Z,33.90
2019-02-21T00:49:56.246Z,31.53
2019-02-21T00:52:24.739Z,32.87
2019-02-21T00:54:53.126Z,32.27
2019-02-21T00:57:21.550Z,30.17
2019-02-21T00:59:50.947Z,30.27
2019-02-21T01:02:21.488Z,29.43
2019-02-21T01:04:50.118Z,29.07
2019-02-21T01:07:20.315Z,30.27
2019-02-21T01:09:49.078Z,31.10
2019-02-21T01:12:17.736Z,29.60
2019-02-21T01:14:46.394Z,32.30
2019-02-21T01:17:14.756Z,31.33
2019-02-21T01:19:43.302Z,30.37
2019-02-21T01:22:11.840Z,30.97
2019-02-21T01:24:40.300Z,30.93
2019-02-21T01:27:08.963Z,31.33
2019-02-21T01:29:37.417Z,32.83
2019-02-21T01:32:06.089Z,32.70
2019-02-21T01:34:35.046Z,30.30
2019-02-21T01:37:03.732Z,32.30
2019-02-21T01:39:32.114Z,29.93
2019-02-21T01:42:05.857Z,30.10
2019-02-21T01:44:34.563Z,30.23
2019-02-21T01:47:04.308Z,32.17
2019-02-21T01:49:33.066Z,29.83
2019-02-21T01:52:01.480Z,30.43
2019-02-21T01:54:32.532Z,30.73
2019-02-21T01:57:01.103Z,27.90
2019-02-21T01:59:30.100Z,30.00
2019-02-21T02:01:59.236Z,27.73
2019-02-21T02:04:30.537Z,29.87
2019-02-21T02:06:59.222Z,29.03
2019-02-21T02:09:27.954Z,28.87
2019-02-21T02:11:56.801Z,28.43
2019-02-21T02:14:25.597Z,29.33
2019-02-21T02:16:54.065Z,28.87
2019-02-21T02:19:22.832Z,31.50
2019-02-21T02:21:51.626Z,29.83
2019-02-21T02:24:20.358Z,27.70
2019-02-21T02:26:49.543Z,29.87
2019-02-21T02:29:17.961Z,28.83
2019-02-21T02:31:50.046Z,27.17
2019-02-21T02:34:18.635Z,28.17
2019-02-21T02:36:47.481Z,29.37
2019-02-21T02:39:16.005Z,30.27
2019-02-21T02:41:44.385Z,28.67
2019-02-21T02:44:13.022Z,27.73
2019-02-21T02:46:43.723Z,29.50
2019-02-21T02:49:13.779Z,28.33
2019-02-21T02:51:42.405Z,29.43
2019-02-21T02:54:10.781Z,29.27
2019-02-21T02:56:39.507Z,29.87
2019-02-21T02:59:08.195Z,28.13
2019-02-21T03:01:36.935Z,27.53
2019-02-21T03:04:05.355Z,29.03
2019-02-21T03:06:34.159Z,27.00
2019-02-21T03:09:04.274Z,28.83
2019-02-21T03:11:32.972Z,29.43
2019-02-21T03:14:01.563Z,30.70
2019-02-21T03:16:30.199Z,29.47
2019-02-21T03:18:58.542Z,29.23
2019-02-21T03:21:27.527Z,29.00
2019-02-21T03:23:56.569Z,27.57
2019-02-21T03:26:25.451Z,29.10
2019-02-21T03:28:53.876Z,29.03
2019-02-21T03:31:22.265Z,28.43
2019-02-21T03:33:50.610Z,29.57
2019-02-21T03:36:19.028Z,28.33
2019-02-21T03:38:47.415Z,29.00
2019-02-21T03:41:15.871Z,29.97
2019-02-21T03:43:44.213Z,28.40
2019-02-21T03:46:12.660Z,29.17
2019-02-21T03:48:41.020Z,30.13
2019-02-21T03:51:09.440Z,30.07
2019-02-21T03:53:37.902Z,29.77
2019-02-21T03:56:06.316Z,31.37
2019-02-21T03:58:34.771Z,28.90
2019-02-21T04:01:03.195Z,27.87
2019-02-21T04:03:31.648Z,30.83
2019-02-21T04:05:59.992Z,27.83
2019-02-21T04:08:28.386Z,26.60
2019-02-21T04:10:56.806Z,44.37
2019-02-21T04:13:25.264Z,28.77
2019-02-21T04:15:53.688Z,29.57
2019-02-21T04:18:22.078Z,29.40
2019-02-21T04:20:50.430Z,30.57
2019-02-21T04:23:18.819Z,29.23
2019-02-21T04:25:47.173Z,30.10
2019-02-21T04:28:15.555Z,27.53
2019-02-21T04:30:43.911Z,26.73
2019-02-21T04:33:12.382Z,29.33
2019-02-21T04:35:40.732Z,27.20
2019-02-21T04:38:09.111Z,27.23
2019-02-21T04:40:37.469Z,27.53
2019-02-21T04:43:05.922Z,27.63
2019-02-21T04:45:34.280Z,29.97
2019-02-21T04:48:02.665Z,29.00
2019-02-21T04:50:31.008Z,30.30
2019-02-21T04:52:59.396Z,30.53
2019-02-21T04:55:27.746Z,31.13
2019-02-21T04:57:56.133Z,27.63
2019-02-21T05:00:24.487Z,26.13
2019-02-21T05:02:52.868Z,30.27
2019-02-21T05:05:21.222Z,28.17
2019-02-21T05:07:49.605Z,27.83
2019-02-21T05:10:17.956Z,31.10
2019-02-21T05:12:46.340Z,28.57
2019-02-21T05:15:14.695Z,27.00
2019-02-21T05:17:43.056Z,26.70
2019-02-21T05:20:11.745Z,28.87
2019-02-21T05:22:40.099Z,30.40
2019-02-21T05:25:08.551Z,30.73
2019-02-21T05:27:38.133Z,29.13
2019-02-21T05:30:10.410Z,28.43
2019-02-21T05:32:41.388Z,27.73
2019-02-21T05:35:31.302Z,27.10
2019-02-21T05:38:04.609Z,27.57
2019-02-21T05:40:37.607Z,30.27
2019-02-21T05:43:25.639Z,28.80
2019-02-21T05:45:55.723Z,26.40
2019-02-21T05:48:31.437Z,29.90
2019-02-21T05:51:08.354Z,29.73
2019-02-21T05:53:39.123Z,28.30
2019-02-21T05:56:09.118Z,30.60
2019-02-21T05:58:48.127Z,32.63
2019-02-21T06:01:23.981Z,35.33
2019-02-21T06:03:56.953Z,33.17
2019-02-21T06:06:26.939Z,31.83
2019-02-21T06:08:59.836Z,30.47
2019-02-21T06:11:29.834Z,29.03
2019-02-21T06:13:59.857Z,30.20
2019-02-21T06:16:32.483Z,32.10
2019-02-21T06:19:07.610Z,34.67
2019-02-21T06:21:43.235Z,34.47
2019-02-21T06:24:16.195Z,32.27
2019-02-21T06:27:00.765Z,35.10
2019-02-21T06:29:30.065Z,32.17
2019-02-21T06:31:58.464Z,32.03
2019-02-21T06:34:26.925Z,32.70
2019-02-21T06:36:55.278Z,32.87
2019-02-21T06:39:25.131Z,36.30
2019-02-21T06:41:59.787Z,33.20
2019-02-21T06:44:24.068Z,29.30
2019-02-21T06:46:52.420Z,33.97
2019-02-21T06:49:31.754Z,31.97
2019-02-21T06:51:50.909Z,31.83
2019-02-21T06:54:19.303Z,31.43
2019-02-21T06:56:47.667Z,29.47
2019-02-21T06:59:16.026Z,33.13
2019-02-21T07:01:44.404Z,35.47
2019-02-21T07:04:12.760Z,49.17
2019-02-21T07:06:41.146Z,33.53
2019-02-21T07:09:09.567Z,33.33
2019-02-21T07:11:37.950Z,30.73
2019-02-21T07:14:06.313Z,36.33
2019-02-21T07:16:37.236Z,31.77
2019-02-21T07:19:04.845Z,32.97
2019-02-21T07:21:33.315Z,30.33
2019-02-21T07:24:01.670Z,33.30
2019-02-21T07:26:30.933Z,32.80
2019-02-21T07:28:59.287Z,28.03
2019-02-21T07:31:29.302Z,33.37
2019-02-21T07:33:57.816Z,30.77
2019-02-21T07:36:26.210Z,33.60
2019-02-21T07:39:08.531Z,32.40
2019-02-21T07:41:25.595Z,34.10
2019-02-21T07:43:53.956Z,34.83
2019-02-21T07:46:22.352Z,36.20
2019-02-21T07:48:50.706Z,32.43
2019-02-21T07:51:19.166Z,32.27
2019-02-21T07:53:47.521Z,32.83
2019-02-21T07:56:15.919Z,33.67
2019-02-21T07:58:44.277Z,37.13
2019-02-21T08:01:12.776Z,36.30
2019-02-21T08:03:44.480Z,33.90
2019-02-21T08:06:11.207Z,34.57
2019-02-21T08:08:39.559Z,34.03
2019-02-21T08:11:08.017Z,34.90
2019-02-21T08:13:36.369Z,33.93
2019-02-21T08:16:04.821Z,34.83
2019-02-21T08:18:33.177Z,36.50
2019-02-21T08:21:01.517Z,33.67
2019-02-21T08:23:32.380Z,35.40
2019-02-21T08:25:59.981Z,33.87
2019-02-21T08:28:28.362Z,34.43
2019-02-21T08:30:58.108Z,37.30
2019-02-21T08:33:28.386Z,35.90
2019-02-21T08:35:57.912Z,35.67
2019-02-21T08:38:27.365Z,35.83
2019-02-21T08:40:57.195Z,38.27
2019-02-21T08:43:25.683Z,36.57
2019-02-21T08:45:54.034Z,39.23
2019-02-21T08:48:22.500Z,39.47
2019-02-21T08:50:50.848Z,34.70
2019-02-21T08:53:19.249Z,36.70
2019-02-21T08:55:47.590Z,38.97
2019-02-21T08:58:16.100Z,37.83
2019-02-21T09:00:44.451Z,37.03
2019-02-21T09:03:12.902Z,39.63
2019-02-21T09:05:41.267Z,40.47
2019-02-21T09:08:09.642Z,41.57
2019-02-21T09:10:37.989Z,41.83
2019-02-21T09:13:06.368Z,43.20
2019-02-21T09:15:34.880Z,43.67
2019-02-21T09:18:03.336Z,43.60
2019-02-21T09:20:31.691Z,41.03
2019-02-21T09:23:00.143Z,43.93
2019-02-21T09:25:30.087Z,42.90
2019-02-21T09:27:59.848Z,42.90
2019-02-21T09:30:28.814Z,42.80
2019-02-21T09:32:57.194Z,45.27
2019-02-21T09:35:26.863Z,44.20
2019-02-21T09:37:55.252Z,41.93
2019-02-21T09:40:23.736Z,43.43
2019-02-21T09:42:52.119Z,41.87
2019-02-21T09:45:20.562Z,42.13
2019-02-21T09:47:50.479Z,45.07
2019-02-21T09:50:19.044Z,42.07
2019-02-21T09:52:47.419Z,45.87
2019-02-21T09:55:17.691Z,45.13
2019-02-21T09:57:46.146Z,45.47
2019-02-21T10:00:22.230Z,45.43
2019-02-21T10:02:54.278Z,45.93
2019-02-21T10:05:20.771Z,47.40
2019-02-21T10:07:49.161Z,44.93
2019-02-21T10:10:20.577Z,44.00
2019-02-21T10:12:49.021Z,42.43
2019-02-21T10:15:18.158Z,45.13
2019-02-21T10:17:46.496Z,42.50
2019-02-21T10:20:22.499Z,45.33
2019-02-21T10:22:50.924Z,43.83
2019-02-21T10:25:23.275Z,45.80
2019-02-21T10:27:51.840Z,45.37
2019-02-21T10:30:22.570Z,45.27
2019-02-21T10:32:50.918Z,46.03
2019-02-21T10:35:19.309Z,45.33
2019-02-21T10:37:47.654Z,49.73
2019-02-21T10:40:16.651Z,47.17
2019-02-21T10:42:45.074Z,49.03
2019-02-21T10:45:23.194Z,47.53
2019-02-21T10:47:51.550Z,48.23
2019-02-21T10:50:20.670Z,48.33
2019-02-21T10:52:49.157Z,47.10
2019-02-21T10:55:18.276Z,47.90
2019-02-21T10:57:46.699Z,46.10
2019-02-21T11:00:20.984Z,47.07
2019-02-21T11:02:49.401Z,47.80
2019-02-21T11:05:17.852Z,48.90
2019-02-21T11:07:46.645Z,47.23
2019-02-21T11:10:19.158Z,46.53
2019-02-21T11:12:47.799Z,45.77
2019-02-21T11:15:18.623Z,45.40
2019-02-21T11:17:47.045Z,45.20
2019-02-21T11:20:18.405Z,45.10
2019-02-21T11:22:46.757Z,44.33
2019-02-21T11:25:15.212Z,44.33
2019-02-21T11:27:43.627Z,51.50
2019-02-21T11:30:19.909Z,49.07
2019-02-21T11:32:48.333Z,50.43
2019-02-21T11:35:16.793Z,48.93
2019-02-21T11:37:47.144Z,50.13
2019-02-21T11:40:17.825Z,50.07
2019-02-21T11:42:46.623Z,48.83
2019-02-21T11:45:19.854Z,47.17
2019-02-21T11:47:48.311Z,47.80
2019-02-21T11:50:18.200Z,47.00
2019-02-21T11:52:46.553Z,48.10
2019-02-21T11:55:17.755Z,48.97
2019-02-21T11:57:46.106Z,48.10
2019-02-21T12:00:17.335Z,47.07
2019-02-21T12:02:45.757Z,43.87
2019-02-21T12:05:17.661Z,42.00
2019-02-21T12:07:44.447Z,42.27
2019-02-21T12:10:13.105Z,39.83
2019-02-21T12:12:41.452Z,38.90
2019-02-21T12:15:11.742Z,39.57
2019-02-21T12:17:42.578Z,37.97
2019-02-21T12:20:15.852Z,33.20
2019-02-21T12:22:44.234Z,39.17
2019-02-21T12:25:21.169Z,38.57
2019-02-21T12:27:49.549Z,28.37
2019-02-21T12:30:19.065Z,28.53
2019-02-21T12:32:47.718Z,28.20
2019-02-21T12:36:19.752Z,28.10
2019-02-21T12:38:48.099Z,30.13
2019-02-21T12:41:16.489Z,28.97
2019-02-21T12:43:44.847Z,24.70
2019-02-21T12:46:13.240Z,29.87
2019-02-21T12:48:41.593Z,26.73
2019-02-21T12:51:09.940Z,24.37
2019-02-21T12:53:40.994Z,26.37
2019-02-21T12:56:09.988Z,26.33
2019-02-21T12:58:38.377Z,28.27
2019-02-21T13:01:06.867Z,26.03
2019-02-21T13:03:35.439Z,25.50
2019-02-21T13:06:03.774Z,23.53
2019-02-21T13:08:34.745Z,22.67
2019-02-21T13:11:03.097Z,22.10
2019-02-21T13:13:31.583Z,20.30
2019-02-21T13:16:00.180Z,21.93
2019-02-21T13:18:28.893Z,22.37
2019-02-21T13:21:00.478Z,21.13
2019-02-21T13:23:30.675Z,21.70
2019-02-21T13:25:59.247Z,20.20
2019-02-21T13:28:27.775Z,19.77
2019-02-21T13:30:56.319Z,20.70
2019-02-21T13:33:24.841Z,21.13
2019-02-21T13:35:53.908Z,20.33
2019-02-21T13:38:22.284Z,20.90
2019-02-21T13:40:50.705Z,19.83
2019-02-21T13:43:19.153Z,20.60
2019-02-21T13:45:47.503Z,20.53
2019-02-21T13:48:16.818Z,19.83
2019-02-21T13:50:45.195Z,20.53
2019-02-21T13:53:13.584Z,20.27
2019-02-21T13:55:42.098Z,18.77
2019-02-21T13:58:10.962Z,20.13
2019-02-21T14:00:39.673Z,18.87
2019-02-21T14:03:08.065Z,18.30
2019-02-21T14:05:36.431Z,18.47
2019-02-21T14:08:04.933Z,17.13
2019-02-21T14:10:33.331Z,16.57
2019-02-21T14:13:01.766Z,16.13
2019-02-21T14:18:05.934Z,15.50
2019-02-21T14:20:44.678Z,15.70
2019-02-21T14:23:06.700Z,16.27
2019-02-21T14:25:40.766Z,14.47
2019-02-21T14:28:05.240Z,17.40
2019-02-21T14:30:33.642Z,16.70
2019-02-21T14:33:04.316Z,15.77
2019-02-21T14:35:32.804Z,16.73
2019-02-21T14:38:01.202Z,16.80
2019-02-21T14:40:29.665Z,15.60
2019-02-21T14:42:58.014Z,17.80
2019-02-21T14:45:26.667Z,17.90
2019-02-21T14:47:55.091Z,17.43
2019-02-21T14:50:23.544Z,17.70
2019-02-21T14:52:51.899Z,18.47
2019-02-21T14:55:20.289Z,18.33
2019-02-21T14:57:48.712Z,17.90
2019-02-21T15:00:28.134Z,18.03
2019-02-21T15:02:57.770Z,18.20
2019-02-21T15:05:26.521Z,18.23
2019-02-21T15:07:55.004Z,17.60
2019-02-21T15:10:23.460Z,17.43
2019-02-21T15:12:51.828Z,17.00
2019-02-21T15:15:23.376Z,16.63
2019-02-21T15:17:52.239Z,17.97
2019-02-21T15:20:20.874Z,16.37
2019-02-21T15:22:49.789Z,16.47
2019-02-21T15:25:19.264Z,17.40
2019-02-21T15:27:48.862Z,17.57
2019-02-21T15:30:27.529Z,18.33
2019-02-21T15:32:56.021Z,16.57
2019-02-21T15:35:26.404Z,16.93
2019-02-21T15:37:54.931Z,15.70
2019-02-21T15:40:25.060Z,15.77
2019-02-21T15:42:55.679Z,17.27
2019-02-21T15:45:31.756Z,17.43
2019-02-21T15:48:00.684Z,17.53
2019-02-21T15:50:32.694Z,16.90
2019-02-21T15:53:03.843Z,15.83
2019-02-21T15:55:33.602Z,18.00
2019-02-21T15:58:04.238Z,16.13
2019-02-21T16:00:32.622Z,17.03
2019-02-21T16:03:15.414Z,16.50
2019-02-21T16:05:45.090Z,16.93
2019-02-21T16:08:14.083Z,17.07
2019-02-21T16:10:44.372Z,17.60
2019-02-21T16:13:24.482Z,17.10
2019-02-21T16:15:58.540Z,22.00
2019-02-21T16:18:30.403Z,21.33
2019-02-21T16:21:03.191Z,19.23
2019-02-21T16:23:31.713Z,26.97
2019-02-21T16:26:01.523Z,21.27
2019-02-21T16:28:32.441Z,17.50
2019-02-21T16:31:05.746Z,17.37
2019-02-21T16:33:35.201Z,15.60
2019-02-21T16:36:12.295Z,16.40
2019-02-21T16:38:40.801Z,16.00
2019-02-21T16:41:09.656Z,17.10
2019-02-21T16:43:38.096Z,17.53
2019-02-21T16:46:09.832Z,16.47
2019-02-21T16:48:39.042Z,16.13
2019-02-21T16:51:07.646Z,15.87
2019-02-21T16:53:38.327Z,15.73
2019-02-21T16:56:08.245Z,17.73
2019-02-21T16:58:37.124Z,16.67
2019-02-21T17:01:05.715Z,16.20
2019-02-21T17:03:34.733Z,16.40
2019-02-21T17:06:03.625Z,16.57
2019-02-21T17:08:32.199Z,16.17
2019-02-21T17:11:00.545Z,16.77
2019-02-21T17:13:29.241Z,17.53
2019-02-21T17:15:58.475Z,16.30
2019-02-21T17:18:27.125Z,17.60
2019-02-21T17:20:55.618Z,17.70
2019-02-21T17:23:24.024Z,16.30
2019-02-21T17:25:53.541Z,16.63
2019-02-21T17:28:22.011Z,15.73
2019-02-21T17:30:51.431Z,17.67
2019-02-21T17:33:19.891Z,21.53
2019-02-21T17:35:48.540Z,23.40
2019-02-21T17:38:17.412Z,23.27
2019-02-21T17:40:46.358Z,26.60
2019-02-21T17:43:15.305Z,33.93
2019-02-21T17:45:43.798Z,48.53
2019-02-21T17:48:12.878Z,39.20
2019-02-21T17:50:43.058Z,25.40
2019-02-21T17:53:13.292Z,24.33
2019-02-21T17:55:42.340Z,27.60
2019-02-21T17:58:11.473Z,27.50
2019-02-21T18:00:43.573Z,20.93
2019-02-21T18:03:13.137Z,22.10
2019-02-21T18:05:43.337Z,20.63
2019-02-21T18:08:18.318Z,19.27
2019-02-21T18:10:48.804Z,21.93
2019-02-21T18:13:19.157Z,22.07
2019-02-21T18:15:51.181Z,23.53
2019-02-21T18:18:20.005Z,23.60
2019-02-21T18:20:49.288Z,25.93
2019-02-21T18:23:18.289Z,27.60
2019-02-21T18:25:59.022Z,26.77
2019-02-21T18:28:27.965Z,26.50
2019-02-21T18:30:57.454Z,26.80
2019-02-21T18:33:28.159Z,26.67
2019-02-21T18:35:57.255Z,27.67
2019-02-21T18:38:27.880Z,26.83
2019-02-21T18:41:00.287Z,25.37
2019-02-21T18:43:29.246Z,23.27
2019-02-21T18:45:57.813Z,25.50
2019-02-21T18:48:27.031Z,24.30
2019-02-21T18:50:56.419Z,24.03
2019-02-21T18:53:24.960Z,24.90
2019-02-21T18:55:57.194Z,24.13
2019-02-21T18:58:25.999Z,23.50
2019-02-21T19:00:54.456Z,24.27
2019-02-21T19:03:22.813Z,23.10
2019-02-21T19:05:51.271Z,23.27
2019-02-21T19:08:19.707Z,23.73
2019-02-21T19:10:48.165Z,23.93
2019-02-21T19:13:16.540Z,25.20
2019-02-21T19:15:44.951Z,24.07
2019-02-21T19:18:13.466Z,25.13
2019-02-21T19:20:42.203Z,24.17
2019-02-21T19:23:10.547Z,25.80
2019-02-21T19:25:39.006Z,26.57
2019-02-21T19:28:07.420Z,25.80
2019-02-21T19:30:57.187Z,26.83
2019-02-21T19:33:25.616Z,26.13
2019-02-21T19:35:54.001Z,27.47
2019-02-21T19:38:25.921Z,25.57
2019-02-21T19:40:55.268Z,29.57
2019-02-21T19:43:25.913Z,32.93
2019-02-21T19:45:54.770Z,28.37
2019-02-21T19:48:24.917Z,24.90
2019-02-21T19:50:54.038Z,26.57
2019-02-21T19:53:22.788Z,26.77
2019-02-21T19:55:51.592Z,32.70
2019-02-21T19:58:20.554Z,29.90
2019-02-21T20:00:49.975Z,30.93
2019-02-21T20:03:21.398Z,31.33
2019-02-21T20:05:50.509Z,32.03
2019-02-21T20:08:21.641Z,31.27
2019-02-21T20:10:50.065Z,31.10
2019-02-21T20:13:19.838Z,30.43
2019-02-21T20:15:49.283Z,33.13
2019-02-21T20:18:18.310Z,32.77
2019-02-21T20:20:47.715Z,30.37
2019-02-21T20:23:16.621Z,34.63
2019-02-21T20:25:46.191Z,30.17
2019-02-21T20:28:14.690Z,31.87
2019-02-21T20:30:44.586Z,31.23
2019-02-21T20:33:13.725Z,33.17
2019-02-21T20:35:42.401Z,30.97
2019-02-21T20:38:11.230Z,31.37
2019-02-21T20:40:40.651Z,32.20
2019-02-21T20:43:12.072Z,32.80
2019-02-21T20:45:40.466Z,33.93
2019-02-21T20:48:08.638Z,32.80
2019-02-21T20:50:37.960Z,33.90
2019-02-21T20:53:06.420Z,29.23
2019-02-21T20:55:43.486Z,31.40
2019-02-21T20:58:04.946Z,36.90
2019-02-21T21:00:33.365Z,33.13
2019-02-21T21:03:01.818Z,32.87
2019-02-21T21:05:30.170Z,29.93
2019-02-21T21:07:58.870Z,30.90
2019-02-21T21:10:27.214Z,34.07
2019-02-21T21:12:55.602Z,28.23
2019-02-21T21:15:24.027Z,30.97
2019-02-21T21:17:52.418Z,37.77
2019-02-21T21:20:21.071Z,32.23
2019-02-21T21:22:49.875Z,31.10
2019-02-21T21:25:21.433Z,29.83
2019-02-21T21:27:50.533Z,29.57
2019-02-21T21:30:21.862Z,32.57
2019-02-21T21:32:52.386Z,38.67
2019-02-21T21:35:21.169Z,36.90
2019-02-21T21:37:50.389Z,34.47
2019-02-21T21:40:25.034Z,31.77
2019-02-21T21:42:53.867Z,30.73
2019-02-21T21:45:22.236Z,30.47
2019-02-21T21:47:51.310Z,28.90
2019-02-21T21:50:20.455Z,30.87
2019-02-21T21:52:48.873Z,29.13
2019-02-21T21:55:20.828Z,28.47
2019-02-21T21:57:50.458Z,27.70
2019-02-21T22:00:26.744Z,28.80
2019-02-21T22:02:55.842Z,29.43
2019-02-21T22:05:30.315Z,28.57
2019-02-21T22:07:59.470Z,27.97
2019-02-21T22:10:28.275Z,36.13
2019-02-21T22:13:00.776Z,31.47
2019-02-21T22:15:29.731Z,29.20
2019-02-21T22:17:58.607Z,27.40
2019-02-21T22:20:33.106Z,27.33
2019-02-21T22:23:02.446Z,27.00
2019-02-21T22:25:37.336Z,27.80
2019-02-21T22:28:05.677Z,28.23
2019-02-21T22:30:34.932Z,27.10
2019-02-21T22:33:03.921Z,27.93
2019-02-21T22:35:34.846Z,28.00
2019-02-21T22:38:09.093Z,27.67
2019-02-21T22:40:37.566Z,28.10
2019-02-21T22:43:08.395Z,27.03
2019-02-21T22:45:38.862Z,28.83
2019-02-21T22:48:14.094Z,26.47
2019-02-21T22:50:43.697Z,27.00
2019-02-21T22:53:15.536Z,27.90
2019-02-21T22:55:45.378Z,27.50
2019-02-21T22:58:14.147Z,27.03
2019-02-21T23:00:58.911Z,29.27
2019-02-21T23:03:42.933Z,34.07
2019-02-21T23:06:14.850Z,33.23
2019-02-21T23:08:46.485Z,29.40
2019-02-21T23:11:15.220Z,31.33
2019-02-21T23:13:44.447Z,26.67
2019-02-21T23:16:12.863Z,30.50
2019-02-21T23:18:41.386Z,33.63
2019-02-21T23:21:09.814Z,31.47
2019-02-21T23:23:38.185Z,27.97
2019-02-21T23:26:06.599Z,27.60
2019-02-21T23:28:34.982Z,27.27
2019-02-21T23:31:03.401Z,29.30
2019-02-21T23:33:33.894Z,29.60
2019-02-21T23:36:02.779Z,28.03
2019-02-21T23:38:31.307Z,29.50
2019-02-21T23:40:59.755Z,30.13
2019-02-21T23:43:28.113Z,29.53
2019-02-21T23:45:56.971Z,29.30
2019-02-21T23:48:26.385Z,29.27
2019-02-21T23:50:55.177Z,29.53
2019-02-21T23:53:23.636Z,29.77
2019-02-21T23:55:52.421Z,31.77
2019-02-21T23:58:20.919Z,31.77
